createdAt,value
2018-11-28T00:00:36.372Z,102353.47
2018-11-28T00:05:39.133Z,102336.34
2018-11-28T00:10:47.872Z,102335.48
2018-11-28T00:15:50.509Z,102330.38
2018-11-28T00:20:53.165Z,102326.09
2018-11-28T00:25:58.820Z,102329.09
2018-11-28T00:30:58.390Z,102323.06
2018-11-28T00:36:01.172Z,102320.49
2018-11-28T00:41:03.916Z,102320.09
2018-11-28T00:46:06.655Z,102326.52
2018-11-28T00:51:10.085Z,102328.69
2018-11-28T00:56:12.663Z,102335.51
2018-11-28T01:01:15.292Z,102341.08
2018-11-28T01:06:17.873Z,102351.79
2018-11-28T01:11:20.490Z,102350.94
2018-11-28T01:16:23.104Z,102359.04
2018-11-28T01:21:25.700Z,102364.18
2018-11-28T01:26:28.301Z,102371.06
2018-11-28T01:31:30.917Z,102359.06
2018-11-28T01:36:33.510Z,102356.49
2018-11-28T01:41:36.080Z,102358.23
2018-11-28T01:46:38.685Z,102353.09
2018-11-28T01:51:41.300Z,102360.80
2018-11-28T01:56:43.900Z,102360.80
2018-11-28T02:01:46.581Z,102344.53
2018-11-28T02:06:49.168Z,102352.23
2018-11-28T02:11:51.739Z,102348.39
2018-11-28T02:16:54.594Z,102346.22
2018-11-28T02:21:57.369Z,102352.64
2018-11-28T02:26:59.972Z,102351.80
2018-11-28T02:32:02.558Z,102362.89
2018-11-28T02:37:05.361Z,102359.47
2018-11-28T02:42:07.944Z,102375.32
2018-11-28T02:47:10.650Z,102370.61
2018-11-28T02:52:13.393Z,102359.47
2018-11-28T02:57:16.002Z,102362.50
2018-11-28T03:02:18.606Z,102366.80
2018-11-28T03:07:21.193Z,102365.97
2018-11-28T03:12:23.814Z,102376.72
2018-11-28T03:17:26.515Z,102379.75
2018-11-28T03:22:29.128Z,102396.02
2018-11-28T03:27:31.748Z,102390.47
2018-11-28T03:32:34.320Z,102392.66
2018-11-28T03:37:36.973Z,102394.77
2018-11-28T03:42:40.210Z,102393.95
2018-11-28T03:47:43.968Z,102394.39
2018-11-28T03:52:46.641Z,102410.66
2018-11-28T03:57:49.238Z,102412.81
2018-11-28T04:02:51.816Z,102407.69
2018-11-28T04:07:54.488Z,102419.27
2018-11-28T04:12:57.080Z,102432.11
2018-11-28T04:17:59.651Z,102420.98
2018-11-28T04:23:02.334Z,102432.09
2018-11-28T04:28:05.241Z,102429.53
2018-11-28T04:33:07.822Z,102433.83
2018-11-28T04:38:10.392Z,102435.95
2018-11-28T04:43:12.960Z,102438.51
2018-11-28T04:48:15.563Z,102433.37
2018-11-28T04:53:18.217Z,102435.51
2018-11-28T04:58:20.820Z,102433.78
2018-11-28T05:03:23.434Z,102427.38
2018-11-28T05:08:26.038Z,102424.38
2018-11-28T05:13:28.761Z,102431.62
2018-11-28T05:18:31.417Z,102441.05
2018-11-28T05:23:34.059Z,102438.47
2018-11-28T05:28:36.726Z,102452.13
2018-11-28T05:33:39.364Z,102455.55
2018-11-28T05:38:41.956Z,102455.95
2018-11-28T05:43:44.621Z,102450.39
2018-11-28T05:48:47.260Z,102455.92
2018-11-28T05:53:49.928Z,102463.59
2018-11-28T05:58:52.800Z,102465.30
2018-11-28T06:03:55.405Z,102478.11
2018-11-28T06:08:58.040Z,102469.98
2018-11-28T06:14:00.660Z,102469.55
2018-11-28T06:19:03.415Z,102477.66
2018-11-28T06:24:06.056Z,102480.21
2018-11-28T06:29:09.607Z,102485.34
2018-11-28T06:34:12.537Z,102485.75
2018-11-28T06:39:15.219Z,102487.02
2018-11-28T06:44:17.852Z,102493.84
2018-11-28T06:49:20.512Z,102498.98
2018-11-28T06:54:23.109Z,102507.47
2018-11-28T06:59:25.704Z,102507.92
2018-11-28T07:04:28.328Z,102509.61
2018-11-28T07:09:31.024Z,102517.27
2018-11-28T07:14:33.685Z,102521.55
2018-11-28T07:19:36.398Z,102526.25
2018-11-28T07:24:39.031Z,102527.98
2018-11-28T07:29:41.742Z,102529.69
2018-11-28T07:34:44.372Z,102537.38
2018-11-28T07:39:46.973Z,102544.23
2018-11-28T07:44:49.713Z,102543.80
2018-11-28T07:49:52.480Z,102556.19
2018-11-28T07:54:55.256Z,102559.66
2018-11-28T07:59:58.016Z,102561.84
2018-11-28T08:05:00.644Z,102562.31
2018-11-28T08:10:03.623Z,102558.89
2018-11-28T08:15:07.415Z,102566.62
2018-11-28T08:20:10.053Z,102563.20
2018-11-28T08:25:14.961Z,102558.56
2018-11-28T08:30:24.219Z,102565.02
2018-11-28T08:35:26.876Z,102556.97
2018-11-28T08:40:29.562Z,102554.44
2018-11-28T08:45:32.233Z,102566.42
2018-11-28T08:50:36.850Z,102563.37
2018-11-28T08:55:39.545Z,102563.72
2018-11-28T09:00:42.146Z,102554.63
2018-11-28T09:05:44.748Z,102568.53
2018-11-28T09:10:47.382Z,102567.40
2018-11-28T09:15:50.017Z,102562.80
2018-11-28T09:20:52.746Z,102557.55
2018-11-28T09:25:55.529Z,102559.17
2018-11-28T09:30:58.179Z,102548.19
2018-11-28T09:36:00.785Z,102554.83
2018-11-28T09:41:03.401Z,102560.27
2018-11-28T09:46:06.137Z,102548.22
2018-11-28T09:51:08.810Z,102545.66
2018-11-28T09:56:11.451Z,102543.94
2018-11-28T10:01:14.077Z,102543.34
2018-11-28T10:06:16.681Z,102537.48
2018-11-28T10:11:19.309Z,102539.70
2018-11-28T10:16:22.005Z,102535.78
2018-11-28T10:21:24.600Z,102536.91
2018-11-28T10:26:27.204Z,102540.63
2018-11-28T10:31:29.833Z,102562.15
2018-11-28T10:36:32.636Z,102524.87
2018-11-28T10:41:35.284Z,102524.73
2018-11-28T10:46:38.646Z,102529.68
2018-11-28T10:51:41.310Z,102508.37
2018-11-28T10:56:43.929Z,102522.07
2018-11-28T11:01:51.748Z,102514.53
2018-11-28T11:07:00.241Z,102514.50
2018-11-28T11:12:05.228Z,102524.42
2018-11-28T11:17:07.933Z,102515.55
2018-11-28T11:22:10.587Z,102519.88
2018-11-28T11:27:13.221Z,102517.30
2018-11-28T11:32:15.912Z,102519.08
2018-11-28T11:37:18.547Z,102517.00
2018-11-28T11:42:21.173Z,102515.29
2018-11-28T11:47:23.817Z,102504.89
2018-11-28T11:52:26.417Z,102502.32
2018-11-28T11:57:29.035Z,102511.33
2018-11-28T12:02:31.672Z,102499.65
2018-11-28T12:07:34.345Z,102491.99
2018-11-28T12:12:37.033Z,102492.78
2018-11-28T12:17:39.624Z,102483.92
2018-11-28T12:22:43.894Z,102485.00
2018-11-28T12:27:46.530Z,102472.44
2018-11-28T12:32:49.164Z,102469.72
2018-11-28T12:37:52.633Z,102464.13
2018-11-28T12:42:55.305Z,102481.80
2018-11-28T12:47:58.020Z,102467.43
2018-11-28T12:53:01.724Z,102453.80
2018-11-28T12:58:07.036Z,102445.56
2018-11-28T13:03:11.684Z,102446.30
2018-11-28T13:08:14.374Z,102437.30
2018-11-28T13:13:18.125Z,102429.70
2018-11-28T13:18:20.032Z,102438.59
2018-11-28T13:23:22.698Z,102433.72
2018-11-28T13:28:25.292Z,102415.77
2018-11-28T13:33:28.076Z,102418.31
2018-11-28T13:38:30.717Z,102417.52
2018-11-28T13:43:33.449Z,102420.89
2018-11-28T13:48:36.131Z,102435.59
2018-11-28T13:53:38.851Z,102416.23
2018-11-28T13:58:41.480Z,102426.06
2018-11-28T14:03:44.079Z,102421.09
2018-11-28T14:08:46.729Z,102421.59
2018-11-28T14:13:49.401Z,102428.56
2018-11-28T14:18:52.130Z,102429.19
2018-11-28T14:23:54.809Z,102435.52
2018-11-28T14:28:57.451Z,102435.69
2018-11-28T14:34:00.251Z,102425.59
2018-11-28T14:39:04.102Z,102422.23
2018-11-28T14:44:06.793Z,102421.36
2018-11-28T14:49:09.511Z,102416.70
2018-11-28T14:54:12.294Z,102419.81
2018-11-28T14:59:14.923Z,102418.62
2018-11-28T15:04:17.570Z,102424.73
2018-11-28T15:09:26.952Z,102425.20
2018-11-28T15:14:29.578Z,102425.78
2018-11-28T15:19:32.276Z,102412.13
2018-11-28T15:24:34.918Z,102424.19
2018-11-28T15:29:37.796Z,102426.37
2018-11-28T15:34:40.491Z,102417.41
2018-11-28T15:39:43.111Z,102423.45
2018-11-28T15:44:45.848Z,102425.32
2018-11-28T15:49:48.528Z,102435.61
2018-11-28T15:54:51.152Z,102418.92
2018-11-28T15:59:54.012Z,102423.25
2018-11-28T16:04:56.629Z,102419.89
2018-11-28T16:10:05.008Z,102415.20
2018-11-28T16:15:10.588Z,102422.52
2018-11-28T16:20:13.285Z,102435.81
2018-11-28T16:25:15.924Z,102427.70
2018-11-28T16:30:18.556Z,102430.73
2018-11-28T16:35:21.198Z,102425.59
2018-11-28T16:40:23.898Z,102426.91
2018-11-28T16:45:26.548Z,102447.94
2018-11-28T16:50:29.164Z,102444.95
2018-11-28T16:55:31.783Z,102435.16
2018-11-28T17:00:35.524Z,102438.17
2018-11-28T17:05:38.151Z,102430.48
2018-11-28T17:10:40.827Z,102430.03
2018-11-28T17:15:43.587Z,102427.46
2018-11-28T17:20:46.050Z,102413.32
2018-11-28T17:25:48.648Z,102418.95
2018-11-28T17:30:51.405Z,102412.52
2018-11-28T17:35:53.951Z,102421.11
2018-11-28T17:40:56.651Z,102421.58
2018-11-28T17:45:59.300Z,102422.91
2018-11-28T17:51:01.970Z,102413.94
2018-11-28T17:56:05.086Z,102411.83
2018-11-28T18:01:07.864Z,102406.69
2018-11-28T18:06:10.470Z,102400.72
2018-11-28T18:11:14.605Z,102402.87
2018-11-28T18:16:17.167Z,102413.16
2018-11-28T18:21:19.797Z,102407.62
2018-11-28T18:26:22.505Z,102404.25
2018-11-28T18:31:25.402Z,102399.11
2018-11-28T18:36:28.038Z,102397.83
2018-11-28T18:41:30.940Z,102397.84
2018-11-28T18:46:33.454Z,102390.58
2018-11-28T18:51:36.032Z,102409.41
2018-11-28T18:56:38.781Z,102419.69
2018-11-28T19:01:41.681Z,102405.58
2018-11-28T19:06:44.321Z,102405.16
2018-11-28T19:11:46.985Z,102404.30
2018-11-28T19:16:49.598Z,102411.98
2018-11-28T19:21:52.236Z,102418.42
2018-11-28T19:26:54.885Z,102413.30
2018-11-28T19:31:57.481Z,102401.30
2018-11-28T19:37:00.151Z,102409.44
2018-11-28T19:42:02.770Z,102424.41
2018-11-28T19:47:05.344Z,102430.84
2018-11-28T19:52:08.015Z,102418.84
2018-11-28T19:57:10.600Z,102414.16
2018-11-28T20:02:13.207Z,102408.59
2018-11-28T20:07:15.826Z,102408.16
2018-11-28T20:12:19.238Z,102410.72
2018-11-28T20:17:21.849Z,102410.29
2018-11-28T20:22:24.517Z,102415.86
2018-11-28T20:27:27.149Z,102408.16
2018-11-28T20:32:30.471Z,102418.84
2018-11-28T20:37:32.576Z,102414.57
2018-11-28T20:42:35.230Z,102420.55
2018-11-28T20:47:37.921Z,102419.24
2018-11-28T20:52:42.633Z,102441.91
2018-11-28T20:57:45.236Z,102431.64
2018-11-28T21:02:47.985Z,102420.11
2018-11-28T21:07:50.585Z,102404.30
2018-11-28T21:12:53.509Z,102385.94
2018-11-28T21:17:56.288Z,102392.34
2018-11-28T21:23:02.054Z,102399.59
2018-11-28T21:28:04.842Z,102389.77
2018-11-28T21:33:09.106Z,102369.69
2018-11-28T21:38:11.756Z,102375.23
2018-11-28T21:43:14.381Z,102370.95
2018-11-28T21:48:16.974Z,102371.38
2018-11-28T21:53:19.474Z,102386.75
2018-11-28T21:58:22.014Z,102379.07
2018-11-28T22:03:24.640Z,102366.24
2018-11-28T22:08:27.228Z,102370.09
2018-11-28T22:13:29.923Z,102361.55
2018-11-28T22:18:32.548Z,102360.67
2018-11-28T22:23:35.111Z,102362.39
2018-11-28T22:28:37.745Z,102356.84
2018-11-28T22:33:40.402Z,102344.45
2018-11-28T22:38:42.996Z,102355.13
2018-11-28T22:43:45.597Z,102351.71
2018-11-28T22:48:48.224Z,102348.30
2018-11-28T22:53:50.869Z,102338.90
2018-11-28T22:58:53.530Z,102347.42
2018-11-28T23:03:56.228Z,102338.88
2018-11-28T23:08:59.096Z,102325.22
2018-11-28T23:14:01.716Z,102323.50
2018-11-28T23:19:04.550Z,102310.69
2018-11-28T23:24:07.147Z,102306.39
2018-11-28T23:29:09.735Z,102331.17
2018-11-28T23:34:12.426Z,102305.13
2018-11-28T23:39:15.015Z,102302.13
2018-11-28T23:44:17.621Z,102285.04
2018-11-28T23:49:20.351Z,102291.45
2018-11-28T23:54:22.945Z,102292.70
2018-11-28T23:59:25.534Z,102289.73
